sensor_id;sensor_type;location;lat;lon;timestamp;temperature;humidity
13405;DHT22;6773;51.192;7.024;2022-12-29T00:03:39;9.30;99.90
13405;DHT22;6773;51.192;7.024;2022-12-29T00:06:05;9.30;99.90
13405;DHT22;6773;51.192;7.024;2022-12-29T00:11:16;9.30;99.90
13405;DHT22;6773;51.192;7.024;2022-12-29T00:13:43;9.20;99.90
13405;DHT22;6773;51.192;7.024;2022-12-29T00:18:53;9.30;99.90
13405;DHT22;6773;51.192;7.024;2022-12-29T00:21:22;9.30;99.90
13405;DHT22;6773;51.192;7.024;2022-12-29T00:24:15;9.30;99.90
13405;DHT22;6773;51.192;7.024;2022-12-29T00:26:53;9.30;99.90
13405;DHT22;6773;51.192;7.024;2022-12-29T00:29:38;9.30;99.90
13405;DHT22;6773;51.192;7.024;2022-12-29T00:35:10;9.30;99.90
13405;DHT22;6773;51.192;7.024;2022-12-29T00:37:47;9.40;99.90
13405;DHT22;6773;51.192;7.024;2022-12-29T00:40:32;9.40;99.90
13405;DHT22;6773;51.192;7.024;2022-12-29T00:43:16;9.40;99.90
13405;DHT22;6773;51.192;7.024;2022-12-29T00:48:26;9.50;99.90
13405;DHT22;6773;51.192;7.024;2022-12-29T00:51:10;9.40;99.90
13405;DHT22;6773;51.192;7.024;2022-12-29T00:53:36;9.50;99.90
13405;DHT22;6773;51.192;7.024;2022-12-29T00:56:01;9.50;99.90
13405;DHT22;6773;51.192;7.024;2022-12-29T00:58:28;9.60;99.90
13405;DHT22;6773;51.192;7.024;2022-12-29T01:01:05;9.60;99.90
13405;DHT22;6773;51.192;7.024;2022-12-29T01:03:33;9.60;99.90
13405;DHT22;6773;51.192;7.024;2022-12-29T01:06:03;9.60;99.90
13405;DHT22;6773;51.192;7.024;2022-12-29T01:08:29;9.60;99.90
13405;DHT22;6773;51.192;7.024;2022-12-29T01:11:10;9.70;99.90
13405;DHT22;6773;51.192;7.024;2022-12-29T01:13:36;9.70;99.90
13405;DHT22;6773;51.192;7.024;2022-12-29T01:16:03;9.70;99.90
13405;DHT22;6773;51.192;7.024;2022-12-29T01:18:29;9.70;99.90
13405;DHT22;6773;51.192;7.024;2022-12-29T01:20:59;9.70;99.90
13405;DHT22;6773;51.192;7.024;2022-12-29T01:23:25;9.80;99.90
13405;DHT22;6773;51.192;7.024;2022-12-29T01:25:51;9.80;99.90
13405;DHT22;6773;51.192;7.024;2022-12-29T01:28:16;9.80;99.90
13405;DHT22;6773;51.192;7.024;2022-12-29T01:30:42;9.70;99.90
13405;DHT22;6773;51.192;7.024;2022-12-29T01:33:07;9.70;99.90
13405;DHT22;6773;51.192;7.024;2022-12-29T01:37:59;9.70;99.90
13405;DHT22;6773;51.192;7.024;2022-12-29T01:40:24;9.70;99.90
13405;DHT22;6773;51.192;7.024;2022-12-29T01:42:50;9.70;99.90
13405;DHT22;6773;51.192;7.024;2022-12-29T01:45:17;9.70;99.90
13405;DHT22;6773;51.192;7.024;2022-12-29T01:47:55;9.80;99.90
13405;DHT22;6773;51.192;7.024;2022-12-29T01:50:27;9.80;99.90
13405;DHT22;6773;51.192;7.024;2022-12-29T01:53:02;9.80;99.90
13405;DHT22;6773;51.192;7.024;2022-12-29T01:55:34;9.90;99.90
13405;DHT22;6773;51.192;7.024;2022-12-29T01:58:03;10.00;99.90
13405;DHT22;6773;51.192;7.024;2022-12-29T02:07:51;10.20;99.90
13405;DHT22;6773;51.192;7.024;2022-12-29T02:10:20;10.20;99.90
13405;DHT22;6773;51.192;7.024;2022-12-29T02:12:46;10.30;99.90
13405;DHT22;6773;51.192;7.024;2022-12-29T02:31:10;10.60;99.90
13405;DHT22;6773;51.192;7.024;2022-12-29T02:33:51;10.60;99.90
13405;DHT22;6773;51.192;7.024;2022-12-29T02:36:41;10.60;99.90
13405;DHT22;6773;51.192;7.024;2022-12-29T02:39:16;10.70;99.90
13405;DHT22;6773;51.192;7.024;2022-12-29T02:44:35;10.90;99.90
13405;DHT22;6773;51.192;7.024;2022-12-29T02:47:11;10.80;99.90
13405;DHT22;6773;51.192;7.024;2022-12-29T02:52:43;11.00;99.90
13405;DHT22;6773;51.192;7.024;2022-12-29T02:55:11;11.00;99.90
13405;DHT22;6773;51.192;7.024;2022-12-29T02:57:37;11.00;99.90
13405;DHT22;6773;51.192;7.024;2022-12-29T03:00:13;11.10;99.90
13405;DHT22;6773;51.192;7.024;2022-12-29T03:02:52;11.00;99.90
13405;DHT22;6773;51.192;7.024;2022-12-29T03:21:44;11.00;99.90
13405;DHT22;6773;51.192;7.024;2022-12-29T03:24:32;11.10;99.90
13405;DHT22;6773;51.192;7.024;2022-12-29T03:27:02;11.00;99.90
13405;DHT22;6773;51.192;7.024;2022-12-29T03:29:33;10.90;99.90
13405;DHT22;6773;51.192;7.024;2022-12-29T03:32:01;10.90;99.90
13405;DHT22;6773;51.192;7.024;2022-12-29T03:34:29;10.90;99.90
13405;DHT22;6773;51.192;7.024;2022-12-29T03:37:05;10.90;99.90
13405;DHT22;6773;51.192;7.024;2022-12-29T03:39:32;10.90;99.90
13405;DHT22;6773;51.192;7.024;2022-12-29T03:42:06;10.90;99.90
13405;DHT22;6773;51.192;7.024;2022-12-29T03:44:41;10.80;99.90
13405;DHT22;6773;51.192;7.024;2022-12-29T03:47:07;10.80;99.90
13405;DHT22;6773;51.192;7.024;2022-12-29T03:49:33;10.70;99.90
13405;DHT22;6773;51.192;7.024;2022-12-29T03:51:59;10.70;99.90
13405;DHT22;6773;51.192;7.024;2022-12-29T03:54:25;10.60;99.90
13405;DHT22;6773;51.192;7.024;2022-12-29T04:01:42;10.70;99.90
13405;DHT22;6773;51.192;7.024;2022-12-29T04:06:34;10.70;99.90
13405;DHT22;6773;51.192;7.024;2022-12-29T04:09:00;10.70;99.90
13405;DHT22;6773;51.192;7.024;2022-12-29T04:13:51;10.90;99.90
13405;DHT22;6773;51.192;7.024;2022-12-29T04:16:17;10.80;99.90
13405;DHT22;6773;51.192;7.024;2022-12-29T04:18:43;10.90;99.90
13405;DHT22;6773;51.192;7.024;2022-12-29T04:21:08;10.90;99.90
13405;DHT22;6773;51.192;7.024;2022-12-29T04:23:36;10.90;99.90
13405;DHT22;6773;51.192;7.024;2022-12-29T04:26:03;10.90;99.90
13405;DHT22;6773;51.192;7.024;2022-12-29T04:28:30;11.00;99.90
13405;DHT22;6773;51.192;7.024;2022-12-29T04:30:55;11.00;99.90
13405;DHT22;6773;51.192;7.024;2022-12-29T04:33:22;11.00;99.90
13405;DHT22;6773;51.192;7.024;2022-12-29T04:35:48;11.00;99.90
13405;DHT22;6773;51.192;7.024;2022-12-29T04:38:13;11.00;99.90
13405;DHT22;6773;51.192;7.024;2022-12-29T04:40:40;11.20;99.90
13405;DHT22;6773;51.192;7.024;2022-12-29T04:43:07;11.20;99.90
13405;DHT22;6773;51.192;7.024;2022-12-29T04:45:32;11.20;99.90
13405;DHT22;6773;51.192;7.024;2022-12-29T04:50:24;11.10;99.90
13405;DHT22;6773;51.192;7.024;2022-12-29T04:52:49;11.20;99.90
13405;DHT22;6773;51.192;7.024;2022-12-29T04:55:15;11.20;99.90
13405;DHT22;6773;51.192;7.024;2022-12-29T04:57:41;11.20;99.90
13405;DHT22;6773;51.192;7.024;2022-12-29T05:00:07;11.30;99.90
13405;DHT22;6773;51.192;7.024;2022-12-29T05:02:34;11.30;99.90
13405;DHT22;6773;51.192;7.024;2022-12-29T05:05:00;11.30;99.90
13405;DHT22;6773;51.192;7.024;2022-12-29T05:09:52;11.30;99.90
13405;DHT22;6773;51.192;7.024;2022-12-29T05:12:17;11.30;99.90
13405;DHT22;6773;51.192;7.024;2022-12-29T05:17:09;11.30;99.90
13405;DHT22;6773;51.192;7.024;2022-12-29T05:19:34;11.30;99.90
13405;DHT22;6773;51.192;7.024;2022-12-29T05:22:00;11.30;99.90
13405;DHT22;6773;51.192;7.024;2022-12-29T05:24:26;11.40;99.90
13405;DHT22;6773;51.192;7.024;2022-12-29T05:26:51;11.40;99.90
13405;DHT22;6773;51.192;7.024;2022-12-29T05:29:17;11.40;99.90
13405;DHT22;6773;51.192;7.024;2022-12-29T05:31:42;11.40;99.90
13405;DHT22;6773;51.192;7.024;2022-12-29T05:34:11;11.40;99.90
13405;DHT22;6773;51.192;7.024;2022-12-29T05:36:37;11.30;99.90
13405;DHT22;6773;51.192;7.024;2022-12-29T05:41:28;11.40;99.90
13405;DHT22;6773;51.192;7.024;2022-12-29T05:43:54;11.40;99.90
13405;DHT22;6773;51.192;7.024;2022-12-29T05:46:20;11.40;99.90
13405;DHT22;6773;51.192;7.024;2022-12-29T05:48:45;11.40;99.90
13405;DHT22;6773;51.192;7.024;2022-12-29T05:51:12;11.40;99.90
13405;DHT22;6773;51.192;7.024;2022-12-29T05:53:38;11.50;99.90
13405;DHT22;6773;51.192;7.024;2022-12-29T05:56:03;11.50;99.90
13405;DHT22;6773;51.192;7.024;2022-12-29T05:58:30;11.50;99.90
13405;DHT22;6773;51.192;7.024;2022-12-29T06:00:55;11.50;99.90
13405;DHT22;6773;51.192;7.024;2022-12-29T06:03:21;11.60;99.90
13405;DHT22;6773;51.192;7.024;2022-12-29T06:05:47;11.50;99.90
13405;DHT22;6773;51.192;7.024;2022-12-29T06:08:12;11.50;99.90
13405;DHT22;6773;51.192;7.024;2022-12-29T06:10:38;11.40;99.90
13405;DHT22;6773;51.192;7.024;2022-12-29T06:13:04;11.50;99.90
13405;DHT22;6773;51.192;7.024;2022-12-29T06:15:34;11.50;99.90
13405;DHT22;6773;51.192;7.024;2022-12-29T06:17:59;11.50;99.90
13405;DHT22;6773;51.192;7.024;2022-12-29T06:20:25;11.40;99.90
13405;DHT22;6773;51.192;7.024;2022-12-29T06:22:51;11.60;99.90
13405;DHT22;6773;51.192;7.024;2022-12-29T06:25:16;11.50;99.90
13405;DHT22;6773;51.192;7.024;2022-12-29T06:27:42;11.50;99.90
13405;DHT22;6773;51.192;7.024;2022-12-29T06:30:09;11.50;99.90
13405;DHT22;6773;51.192;7.024;2022-12-29T06:32:35;11.50;99.90
13405;DHT22;6773;51.192;7.024;2022-12-29T06:35:02;11.50;99.90
13405;DHT22;6773;51.192;7.024;2022-12-29T06:37:28;11.40;99.90
13405;DHT22;6773;51.192;7.024;2022-12-29T06:42:20;11.40;99.90
13405;DHT22;6773;51.192;7.024;2022-12-29T06:44:45;11.30;99.90
13405;DHT22;6773;51.192;7.024;2022-12-29T06:47:11;11.30;99.90
13405;DHT22;6773;51.192;7.024;2022-12-29T06:49:37;11.30;99.90
13405;DHT22;6773;51.192;7.024;2022-12-29T06:52:03;11.40;99.90
13405;DHT22;6773;51.192;7.024;2022-12-29T06:54:30;11.30;99.90
13405;DHT22;6773;51.192;7.024;2022-12-29T06:59:22;11.30;99.90
13405;DHT22;6773;51.192;7.024;2022-12-29T07:01:48;11.30;99.90
13405;DHT22;6773;51.192;7.024;2022-12-29T07:04:13;11.30;99.90
13405;DHT22;6773;51.192;7.024;2022-12-29T07:06:39;11.20;99.90
13405;DHT22;6773;51.192;7.024;2022-12-29T07:09:06;11.20;99.90
13405;DHT22;6773;51.192;7.024;2022-12-29T07:11:32;11.10;99.90
13405;DHT22;6773;51.192;7.024;2022-12-29T07:16:24;11.10;99.90
13405;DHT22;6773;51.192;7.024;2022-12-29T07:21:17;11.10;99.90
13405;DHT22;6773;51.192;7.024;2022-12-29T07:23:43;11.10;99.90
13405;DHT22;6773;51.192;7.024;2022-12-29T07:26:11;11.10;99.90
13405;DHT22;6773;51.192;7.024;2022-12-29T07:31:05;11.20;99.90
13405;DHT22;6773;51.192;7.024;2022-12-29T07:33:31;11.10;99.90
13405;DHT22;6773;51.192;7.024;2022-12-29T07:35:58;11.10;99.90
13405;DHT22;6773;51.192;7.024;2022-12-29T07:38:23;10.90;99.90
13405;DHT22;6773;51.192;7.024;2022-12-29T07:43:15;11.00;99.90
13405;DHT22;6773;51.192;7.024;2022-12-29T07:48:07;11.10;99.90
13405;DHT22;6773;51.192;7.024;2022-12-29T07:50:34;11.00;99.90
13405;DHT22;6773;51.192;7.024;2022-12-29T07:53:00;11.00;99.90
13405;DHT22;6773;51.192;7.024;2022-12-29T07:55:25;11.00;99.90
13405;DHT22;6773;51.192;7.024;2022-12-29T07:57:53;10.90;99.90
13405;DHT22;6773;51.192;7.024;2022-12-29T08:00:19;10.90;99.90
13405;DHT22;6773;51.192;7.024;2022-12-29T08:02:45;10.90;99.90
13405;DHT22;6773;51.192;7.024;2022-12-29T08:05:10;10.90;99.90
13405;DHT22;6773;51.192;7.024;2022-12-29T08:07:36;10.90;99.90
13405;DHT22;6773;51.192;7.024;2022-12-29T08:10:02;10.90;99.90
13405;DHT22;6773;51.192;7.024;2022-12-29T08:12:28;10.90;99.90
13405;DHT22;6773;51.192;7.024;2022-12-29T08:17:19;10.90;99.90
13405;DHT22;6773;51.192;7.024;2022-12-29T08:19:45;10.90;99.90
13405;DHT22;6773;51.192;7.024;2022-12-29T08:22:12;10.90;99.90
13405;DHT22;6773;51.192;7.024;2022-12-29T08:24:38;10.90;99.90
13405;DHT22;6773;51.192;7.024;2022-12-29T08:27:03;10.90;99.90
13405;DHT22;6773;51.192;7.024;2022-12-29T08:29:29;10.90;99.90
13405;DHT22;6773;51.192;7.024;2022-12-29T08:31:54;10.90;99.90
13405;DHT22;6773;51.192;7.024;2022-12-29T08:36:46;10.90;99.90
13405;DHT22;6773;51.192;7.024;2022-12-29T08:39:11;10.90;99.90
13405;DHT22;6773;51.192;7.024;2022-12-29T08:46:29;10.90;99.90
13405;DHT22;6773;51.192;7.024;2022-12-29T08:51:21;10.80;99.90
13405;DHT22;6773;51.192;7.024;2022-12-29T08:53:46;10.80;99.90
13405;DHT22;6773;51.192;7.024;2022-12-29T08:56:12;10.80;99.90
13405;DHT22;6773;51.192;7.024;2022-12-29T09:01:04;10.70;99.90
13405;DHT22;6773;51.192;7.024;2022-12-29T09:03:29;10.50;99.90
13405;DHT22;6773;51.192;7.024;2022-12-29T09:05:55;10.50;99.90
13405;DHT22;6773;51.192;7.024;2022-12-29T09:08:21;11.60;99.90
13405;DHT22;6773;51.192;7.024;2022-12-29T09:13:14;10.40;99.90
13405;DHT22;6773;51.192;7.024;2022-12-29T09:15:40;10.40;99.90
13405;DHT22;6773;51.192;7.024;2022-12-29T09:18:07;10.40;99.90
13405;DHT22;6773;51.192;7.024;2022-12-29T09:20:33;10.50;99.90
13405;DHT22;6773;51.192;7.024;2022-12-29T09:22:59;10.60;99.90
13405;DHT22;6773;51.192;7.024;2022-12-29T09:25:25;10.70;99.90
13405;DHT22;6773;51.192;7.024;2022-12-29T09:27:51;10.70;99.90
13405;DHT22;6773;51.192;7.024;2022-12-29T09:30:21;10.70;99.90
13405;DHT22;6773;51.192;7.024;2022-12-29T09:32:48;10.80;99.90
13405;DHT22;6773;51.192;7.024;2022-12-29T09:35:15;10.80;99.90
13405;DHT22;6773;51.192;7.024;2022-12-29T09:37:40;10.80;99.90
13405;DHT22;6773;51.192;7.024;2022-12-29T09:40:09;10.80;99.90
13405;DHT22;6773;51.192;7.024;2022-12-29T09:43:20;10.70;99.90
13405;DHT22;6773;51.192;7.024;2022-12-29T09:48:30;10.80;99.90
13405;DHT22;6773;51.192;7.024;2022-12-29T09:51:00;10.80;99.90
13405;DHT22;6773;51.192;7.024;2022-12-29T09:53:35;10.80;99.90
13405;DHT22;6773;51.192;7.024;2022-12-29T09:56:02;10.80;99.90
13405;DHT22;6773;51.192;7.024;2022-12-29T09:58:36;10.80;99.90
13405;DHT22;6773;51.192;7.024;2022-12-29T10:01:14;10.80;99.90
13405;DHT22;6773;51.192;7.024;2022-12-29T10:03:47;10.90;99.90
13405;DHT22;6773;51.192;7.024;2022-12-29T10:06:34;10.80;99.90
13405;DHT22;6773;51.192;7.024;2022-12-29T10:17:26;10.90;99.90
13405;DHT22;6773;51.192;7.024;2022-12-29T10:20:20;11.00;99.90
13405;DHT22;6773;51.192;7.024;2022-12-29T10:25:51;10.90;99.90
13405;DHT22;6773;51.192;7.024;2022-12-29T10:28:24;10.90;99.90
13405;DHT22;6773;51.192;7.024;2022-12-29T10:30:56;10.90;99.90
13405;DHT22;6773;51.192;7.024;2022-12-29T10:33:37;10.90;99.90
13405;DHT22;6773;51.192;7.024;2022-12-29T10:36:17;10.90;99.90
13405;DHT22;6773;51.192;7.024;2022-12-29T10:41:28;14.90;99.90
13405;DHT22;6773;51.192;7.024;2022-12-29T10:43:57;10.90;99.90
13405;DHT22;6773;51.192;7.024;2022-12-29T10:46:29;10.90;99.90
13405;DHT22;6773;51.192;7.024;2022-12-29T10:48:55;13.50;99.90
13405;DHT22;6773;51.192;7.024;2022-12-29T10:51:26;10.90;99.90
13405;DHT22;6773;51.192;7.024;2022-12-29T10:54:19;10.90;99.90
13405;DHT22;6773;51.192;7.024;2022-12-29T10:56:53;10.90;99.90
13405;DHT22;6773;51.192;7.024;2022-12-29T10:59:31;10.90;99.90
13405;DHT22;6773;51.192;7.024;2022-12-29T11:07:28;10.90;99.90
13405;DHT22;6773;51.192;7.024;2022-12-29T11:10:02;10.90;99.90
13405;DHT22;6773;51.192;7.024;2022-12-29T11:12:40;10.90;99.90
13405;DHT22;6773;51.192;7.024;2022-12-29T11:17:46;11.00;99.90
13405;DHT22;6773;51.192;7.024;2022-12-29T11:20:34;10.90;99.90
13405;DHT22;6773;51.192;7.024;2022-12-29T11:23:01;10.90;99.90
13405;DHT22;6773;51.192;7.024;2022-12-29T11:25:28;11.00;99.90
13405;DHT22;6773;51.192;7.024;2022-12-29T11:27:56;11.00;99.90
13405;DHT22;6773;51.192;7.024;2022-12-29T11:30:28;11.00;99.90
13405;DHT22;6773;51.192;7.024;2022-12-29T11:32:55;11.00;99.90
13405;DHT22;6773;51.192;7.024;2022-12-29T11:35:36;11.10;99.90
13405;DHT22;6773;51.192;7.024;2022-12-29T11:38:04;11.00;99.90
13405;DHT22;6773;51.192;7.024;2022-12-29T11:43:04;11.00;99.90
13405;DHT22;6773;51.192;7.024;2022-12-29T11:45:33;11.00;99.90
13405;DHT22;6773;51.192;7.024;2022-12-29T11:48:08;11.00;99.90
13405;DHT22;6773;51.192;7.024;2022-12-29T11:50:38;11.00;99.90
13405;DHT22;6773;51.192;7.024;2022-12-29T11:56:08;11.00;99.90
13405;DHT22;6773;51.192;7.024;2022-12-29T11:58:37;10.90;99.90
13405;DHT22;6773;51.192;7.024;2022-12-29T12:01:14;10.90;99.90
13405;DHT22;6773;51.192;7.024;2022-12-29T12:04:12;10.90;99.90
13405;DHT22;6773;51.192;7.024;2022-12-29T12:06:56;10.90;99.90
13405;DHT22;6773;51.192;7.024;2022-12-29T12:09:31;10.90;99.90
13405;DHT22;6773;51.192;7.024;2022-12-29T12:11:59;10.90;99.90
13405;DHT22;6773;51.192;7.024;2022-12-29T12:14:36;10.90;99.90
13405;DHT22;6773;51.192;7.024;2022-12-29T12:17:14;10.80;99.90
13405;DHT22;6773;51.192;7.024;2022-12-29T12:19:47;10.80;99.90
13405;DHT22;6773;51.192;7.024;2022-12-29T12:22:32;10.80;99.90
13405;DHT22;6773;51.192;7.024;2022-12-29T12:27:48;10.80;99.90
13405;DHT22;6773;51.192;7.024;2022-12-29T12:30:25;10.70;99.90
13405;DHT22;6773;51.192;7.024;2022-12-29T12:43:49;10.70;99.90
13405;DHT22;6773;51.192;7.024;2022-12-29T12:52:04;10.70;99.90
13405;DHT22;6773;51.192;7.024;2022-12-29T12:55:00;10.70;99.90
13405;DHT22;6773;51.192;7.024;2022-12-29T13:00:09;10.70;99.90
13405;DHT22;6773;51.192;7.024;2022-12-29T13:11:10;10.60;99.90
13405;DHT22;6773;51.192;7.024;2022-12-29T13:14:01;10.60;99.90
13405;DHT22;6773;51.192;7.024;2022-12-29T13:16:40;10.60;99.90
13405;DHT22;6773;51.192;7.024;2022-12-29T13:19:28;10.60;99.90
13405;DHT22;6773;51.192;7.024;2022-12-29T13:29:47;10.60;99.90
13405;DHT22;6773;51.192;7.024;2022-12-29T13:32:43;10.60;99.90
13405;DHT22;6773;51.192;7.024;2022-12-29T13:35:39;10.60;99.90
13405;DHT22;6773;51.192;7.024;2022-12-29T13:40:50;10.70;99.90
13405;DHT22;6773;51.192;7.024;2022-12-29T13:43:18;10.60;99.90
13405;DHT22;6773;51.192;7.024;2022-12-29T13:45:45;10.60;99.90
13405;DHT22;6773;51.192;7.024;2022-12-29T13:48:21;10.70;99.90
13405;DHT22;6773;51.192;7.024;2022-12-29T13:50:55;10.70;99.90
13405;DHT22;6773;51.192;7.024;2022-12-29T13:59:25;10.60;99.90
13405;DHT22;6773;51.192;7.024;2022-12-29T14:01:59;10.60;99.90
13405;DHT22;6773;51.192;7.024;2022-12-29T14:04:29;10.60;99.90
13405;DHT22;6773;51.192;7.024;2022-12-29T14:07:03;10.50;99.90
13405;DHT22;6773;51.192;7.024;2022-12-29T14:09:48;10.60;99.90
13405;DHT22;6773;51.192;7.024;2022-12-29T14:12:38;10.60;99.90
13405;DHT22;6773;51.192;7.024;2022-12-29T14:17:35;10.60;99.90
13405;DHT22;6773;51.192;7.024;2022-12-29T14:20:02;10.50;99.90
13405;DHT22;6773;51.192;7.024;2022-12-29T14:22:29;10.50;99.90
13405;DHT22;6773;51.192;7.024;2022-12-29T14:24:54;10.50;99.90
13405;DHT22;6773;51.192;7.024;2022-12-29T14:29:50;10.50;99.90
13405;DHT22;6773;51.192;7.024;2022-12-29T14:34:58;10.40;99.90
13405;DHT22;6773;51.192;7.024;2022-12-29T14:37:34;10.30;99.90
13405;DHT22;6773;51.192;7.024;2022-12-29T14:40:25;10.30;99.90
13405;DHT22;6773;51.192;7.024;2022-12-29T14:42:55;10.30;99.90
13405;DHT22;6773;51.192;7.024;2022-12-29T14:45:30;10.30;99.90
13405;DHT22;6773;51.192;7.024;2022-12-29T14:47:58;10.30;99.90
13405;DHT22;6773;51.192;7.024;2022-12-29T14:50:40;10.20;99.90
13405;DHT22;6773;51.192;7.024;2022-12-29T14:53:10;10.20;99.90
13405;DHT22;6773;51.192;7.024;2022-12-29T14:55:57;10.30;99.90
13405;DHT22;6773;51.192;7.024;2022-12-29T14:58:44;10.20;99.90
13405;DHT22;6773;51.192;7.024;2022-12-29T15:01:22;10.20;99.90
13405;DHT22;6773;51.192;7.024;2022-12-29T15:03:51;10.10;99.90
13405;DHT22;6773;51.192;7.024;2022-12-29T15:06:19;10.10;99.90
13405;DHT22;6773;51.192;7.024;2022-12-29T15:11:51;10.10;99.90
13405;DHT22;6773;51.192;7.024;2022-12-29T15:19:26;10.10;99.90
13405;DHT22;6773;51.192;7.024;2022-12-29T15:21:56;10.00;99.90
13405;DHT22;6773;51.192;7.024;2022-12-29T15:24:22;10.00;99.90
13405;DHT22;6773;51.192;7.024;2022-12-29T15:26:53;10.00;99.90
13405;DHT22;6773;51.192;7.024;2022-12-29T15:29:40;10.00;99.90
13405;DHT22;6773;51.192;7.024;2022-12-29T15:32:22;10.00;99.90
13405;DHT22;6773;51.192;7.024;2022-12-29T15:34:51;10.00;99.90
13405;DHT22;6773;51.192;7.024;2022-12-29T15:37:20;10.00;99.90
13405;DHT22;6773;51.192;7.024;2022-12-29T15:39:47;9.90;99.90
13405;DHT22;6773;51.192;7.024;2022-12-29T15:45:15;9.90;99.90
13405;DHT22;6773;51.192;7.024;2022-12-29T15:47:44;9.90;99.90
13405;DHT22;6773;51.192;7.024;2022-12-29T15:50:27;9.90;99.90
13405;DHT22;6773;51.192;7.024;2022-12-29T15:52:54;9.90;99.90
13405;DHT22;6773;51.192;7.024;2022-12-29T15:55:27;9.90;99.90
13405;DHT22;6773;51.192;7.024;2022-12-29T15:57:59;9.80;99.90
13405;DHT22;6773;51.192;7.024;2022-12-29T16:00:35;9.90;99.90
13405;DHT22;6773;51.192;7.024;2022-12-29T16:03:05;9.90;99.90
13405;DHT22;6773;51.192;7.024;2022-12-29T16:05:36;9.80;99.90
13405;DHT22;6773;51.192;7.024;2022-12-29T16:10:39;9.90;99.90
13405;DHT22;6773;51.192;7.024;2022-12-29T16:13:21;9.90;99.90
13405;DHT22;6773;51.192;7.024;2022-12-29T16:15:54;9.80;99.90
13405;DHT22;6773;51.192;7.024;2022-12-29T16:18:27;9.80;99.90
13405;DHT22;6773;51.192;7.024;2022-12-29T16:20:55;9.80;99.90
13405;DHT22;6773;51.192;7.024;2022-12-29T16:23:27;9.80;99.90
13405;DHT22;6773;51.192;7.024;2022-12-29T16:25:54;9.80;99.90
13405;DHT22;6773;51.192;7.024;2022-12-29T16:28:26;9.80;99.90
13405;DHT22;6773;51.192;7.024;2022-12-29T16:31:03;9.80;99.90
13405;DHT22;6773;51.192;7.024;2022-12-29T16:33:45;9.80;99.90
13405;DHT22;6773;51.192;7.024;2022-12-29T16:36:51;9.70;99.90
13405;DHT22;6773;51.192;7.024;2022-12-29T16:39:25;9.60;99.90
13405;DHT22;6773;51.192;7.024;2022-12-29T16:41:53;9.70;99.90
13405;DHT22;6773;51.192;7.024;2022-12-29T16:44:28;9.60;99.90
13405;DHT22;6773;51.192;7.024;2022-12-29T16:47:20;9.60;99.90
13405;DHT22;6773;51.192;7.024;2022-12-29T16:49:50;9.50;99.90
13405;DHT22;6773;51.192;7.024;2022-12-29T16:52:20;9.60;99.90
13405;DHT22;6773;51.192;7.024;2022-12-29T16:54:59;9.50;99.90
13405;DHT22;6773;51.192;7.024;2022-12-29T16:57:30;9.50;99.90
13405;DHT22;6773;51.192;7.024;2022-12-29T16:59:59;9.50;99.90
13405;DHT22;6773;51.192;7.024;2022-12-29T17:02:28;9.50;99.90
13405;DHT22;6773;51.192;7.024;2022-12-29T17:04:54;9.50;99.90
13405;DHT22;6773;51.192;7.024;2022-12-29T17:07:23;9.40;99.90
13405;DHT22;6773;51.192;7.024;2022-12-29T17:09:49;9.40;99.90
13405;DHT22;6773;51.192;7.024;2022-12-29T17:12:27;9.40;99.90
13405;DHT22;6773;51.192;7.024;2022-12-29T17:14:59;9.40;99.90
13405;DHT22;6773;51.192;7.024;2022-12-29T17:17:45;9.40;99.90
13405;DHT22;6773;51.192;7.024;2022-12-29T17:25:12;9.30;99.90
13405;DHT22;6773;51.192;7.024;2022-12-29T17:27:41;9.30;99.90
13405;DHT22;6773;51.192;7.024;2022-12-29T17:30:19;9.30;99.90
13405;DHT22;6773;51.192;7.024;2022-12-29T17:32:57;9.20;99.90
13405;DHT22;6773;51.192;7.024;2022-12-29T17:35:25;9.10;99.90
13405;DHT22;6773;51.192;7.024;2022-12-29T17:40:28;9.20;99.90
13405;DHT22;6773;51.192;7.024;2022-12-29T17:42:56;9.10;99.90
13405;DHT22;6773;51.192;7.024;2022-12-29T17:45:27;9.20;99.90
13405;DHT22;6773;51.192;7.024;2022-12-29T17:47:53;9.10;99.90
13405;DHT22;6773;51.192;7.024;2022-12-29T17:50:22;9.10;99.90
13405;DHT22;6773;51.192;7.024;2022-12-29T17:52:53;9.10;99.90
13405;DHT22;6773;51.192;7.024;2022-12-29T17:55:21;9.10;99.90
13405;DHT22;6773;51.192;7.024;2022-12-29T17:57:47;9.00;99.90
13405;DHT22;6773;51.192;7.024;2022-12-29T18:00:18;9.00;99.90
13405;DHT22;6773;51.192;7.024;2022-12-29T18:02:44;8.80;99.90
13405;DHT22;6773;51.192;7.024;2022-12-29T18:05:19;8.80;99.90
13405;DHT22;6773;51.192;7.024;2022-12-29T18:10:12;8.50;99.90
13405;DHT22;6773;51.192;7.024;2022-12-29T18:12:40;8.50;99.90
13405;DHT22;6773;51.192;7.024;2022-12-29T18:15:12;8.50;99.90
13405;DHT22;6773;51.192;7.024;2022-12-29T18:17:40;8.40;99.90
13405;DHT22;6773;51.192;7.024;2022-12-29T18:22:32;8.40;99.90
13405;DHT22;6773;51.192;7.024;2022-12-29T18:24:58;8.40;99.90
13405;DHT22;6773;51.192;7.024;2022-12-29T18:32:16;8.30;99.90
13405;DHT22;6773;51.192;7.024;2022-12-29T18:34:43;8.30;99.90
13405;DHT22;6773;51.192;7.024;2022-12-29T18:37:10;8.30;99.90
13405;DHT22;6773;51.192;7.024;2022-12-29T18:39:36;8.20;99.90
13405;DHT22;6773;51.192;7.024;2022-12-29T18:42:03;8.20;99.90
13405;DHT22;6773;51.192;7.024;2022-12-29T18:44:29;8.20;99.90
13405;DHT22;6773;51.192;7.024;2022-12-29T18:46:54;8.20;99.90
13405;DHT22;6773;51.192;7.024;2022-12-29T18:49:20;8.20;99.90
13405;DHT22;6773;51.192;7.024;2022-12-29T18:51:46;8.10;99.90
13405;DHT22;6773;51.192;7.024;2022-12-29T18:54:29;8.10;99.90
13405;DHT22;6773;51.192;7.024;2022-12-29T18:59:21;8.10;99.90
13405;DHT22;6773;51.192;7.024;2022-12-29T19:01:47;8.00;99.90
13405;DHT22;6773;51.192;7.024;2022-12-29T19:04:13;8.00;99.90
13405;DHT22;6773;51.192;7.024;2022-12-29T19:06:39;8.00;99.90
13405;DHT22;6773;51.192;7.024;2022-12-29T19:11:32;8.10;99.90
13405;DHT22;6773;51.192;7.024;2022-12-29T19:13:58;8.10;99.90
13405;DHT22;6773;51.192;7.024;2022-12-29T19:16:23;8.00;99.90
13405;DHT22;6773;51.192;7.024;2022-12-29T19:21:19;8.00;99.90
13405;DHT22;6773;51.192;7.024;2022-12-29T19:26:28;7.90;99.90
13405;DHT22;6773;51.192;7.024;2022-12-29T19:28:54;7.90;99.90
13405;DHT22;6773;51.192;7.024;2022-12-29T19:33:46;7.90;99.90
13405;DHT22;6773;51.192;7.024;2022-12-29T19:36:13;7.90;99.90
13405;DHT22;6773;51.192;7.024;2022-12-29T19:38:40;7.90;99.90
13405;DHT22;6773;51.192;7.024;2022-12-29T19:41:07;7.80;99.90
13405;DHT22;6773;51.192;7.024;2022-12-29T19:43:33;7.80;99.90
13405;DHT22;6773;51.192;7.024;2022-12-29T19:46:01;7.80;99.90
13405;DHT22;6773;51.192;7.024;2022-12-29T19:51:03;7.80;99.90
13405;DHT22;6773;51.192;7.024;2022-12-29T19:55:55;7.80;99.90
13405;DHT22;6773;51.192;7.024;2022-12-29T20:00:46;7.70;99.90
13405;DHT22;6773;51.192;7.024;2022-12-29T20:03:14;7.70;99.90
13405;DHT22;6773;51.192;7.024;2022-12-29T20:05:40;7.70;99.90
13405;DHT22;6773;51.192;7.024;2022-12-29T20:08:06;7.70;99.90
13405;DHT22;6773;51.192;7.024;2022-12-29T20:15:24;7.50;99.90
13405;DHT22;6773;51.192;7.024;2022-12-29T20:17:49;7.50;99.90
13405;DHT22;6773;51.192;7.024;2022-12-29T20:20:15;7.40;99.90
13405;DHT22;6773;51.192;7.024;2022-12-29T20:22:41;7.40;99.90
13405;DHT22;6773;51.192;7.024;2022-12-29T20:25:07;7.40;99.90
13405;DHT22;6773;51.192;7.024;2022-12-29T20:29:58;7.30;99.90